sensor_id;sensor_type;location;lat;lon;timestamp;P1;durP1;ratioP1;P2;durP2;ratioP2
20593;SDS011;10455;48.732;10.266;2023-03-14T00:04:10;0.20;;;0.20;;
20593;SDS011;10455;48.732;10.266;2023-03-14T00:09:14;0.27;;;0.27;;
20593;SDS011;10455;48.732;10.266;2023-03-14T00:14:16;0.20;;;0.20;;
20593;SDS011;10455;48.732;10.266;2023-03-14T00:19:20;0.20;;;0.20;;
20593;SDS011;10455;48.732;10.266;2023-03-14T00:24:23;0.20;;;0.20;;
20593;SDS011;10455;48.732;10.266;2023-03-14T00:29:25;0.20;;;0.20;;
20593;SDS011;10455;48.732;10.266;2023-03-14T00:34:28;0.30;;;0.30;;
20593;SDS011;10455;48.732;10.266;2023-03-14T00:39:31;0.20;;;0.20;;
20593;SDS011;10455;48.732;10.266;2023-03-14T00:44:33;0.20;;;0.20;;
20593;SDS011;10455;48.732;10.266;2023-03-14T00:49:35;0.30;;;0.30;;
20593;SDS011;10455;48.732;10.266;2023-03-14T00:54:39;0.20;;;0.20;;
20593;SDS011;10455;48.732;10.266;2023-03-14T00:59:40;0.20;;;0.20;;
20593;SDS011;10455;48.732;10.266;2023-03-14T01:04:42;0.20;;;0.20;;
20593;SDS011;10455;48.732;10.266;2023-03-14T01:09:45;0.20;;;0.20;;
20593;SDS011;10455;48.732;10.266;2023-03-14T01:14:47;0.30;;;0.30;;
20593;SDS011;10455;48.732;10.266;2023-03-14T01:19:49;0.30;;;0.30;;
20593;SDS011;10455;48.732;10.266;2023-03-14T01:24:52;0.23;;;0.23;;
20593;SDS011;10455;48.732;10.266;2023-03-14T01:29:54;0.20;;;0.20;;
20593;SDS011;10455;48.732;10.266;2023-03-14T01:34:56;0.30;;;0.30;;
20593;SDS011;10455;48.732;10.266;2023-03-14T01:39:59;0.30;;;0.30;;
20593;SDS011;10455;48.732;10.266;2023-03-14T01:45:03;0.30;;;0.30;;
20593;SDS011;10455;48.732;10.266;2023-03-14T01:50:06;0.30;;;0.30;;
20593;SDS011;10455;48.732;10.266;2023-03-14T01:55:12;0.20;;;0.20;;
20593;SDS011;10455;48.732;10.266;2023-03-14T02:00:17;0.30;;;0.30;;
20593;SDS011;10455;48.732;10.266;2023-03-14T02:05:23;0.30;;;0.30;;
20593;SDS011;10455;48.732;10.266;2023-03-14T02:10:30;0.30;;;0.30;;
20593;SDS011;10455;48.732;10.266;2023-03-14T02:15:35;0.30;;;0.30;;
20593;SDS011;10455;48.732;10.266;2023-03-14T02:20:38;0.30;;;0.30;;
20593;SDS011;10455;48.732;10.266;2023-03-14T02:25:51;0.20;;;0.20;;
20593;SDS011;10455;48.732;10.266;2023-03-14T02:30:59;0.30;;;0.30;;
20593;SDS011;10455;48.732;10.266;2023-03-14T02:36:02;0.30;;;0.30;;
20593;SDS011;10455;48.732;10.266;2023-03-14T02:41:07;0.30;;;0.30;;
20593;SDS011;10455;48.732;10.266;2023-03-14T02:46:11;0.30;;;0.30;;
20593;SDS011;10455;48.732;10.266;2023-03-14T02:51:14;0.30;;;0.30;;
20593;SDS011;10455;48.732;10.266;2023-03-14T02:56:16;0.30;;;0.30;;
20593;SDS011;10455;48.732;10.266;2023-03-14T03:01:20;0.30;;;0.30;;
20593;SDS011;10455;48.732;10.266;2023-03-14T03:06:22;0.30;;;0.30;;
20593;SDS011;10455;48.732;10.266;2023-03-14T03:11:23;0.30;;;0.30;;
20593;SDS011;10455;48.732;10.266;2023-03-14T03:16:27;0.30;;;0.30;;
20593;SDS011;10455;48.732;10.266;2023-03-14T03:21:29;0.30;;;0.30;;
20593;SDS011;10455;48.732;10.266;2023-03-14T03:26:30;0.30;;;0.30;;
20593;SDS011;10455;48.732;10.266;2023-03-14T03:31:36;0.30;;;0.30;;
20593;SDS011;10455;48.732;10.266;2023-03-14T03:36:38;0.30;;;0.30;;
20593;SDS011;10455;48.732;10.266;2023-03-14T03:41:40;0.20;;;0.20;;
20593;SDS011;10455;48.732;10.266;2023-03-14T03:46:43;0.30;;;0.30;;
20593;SDS011;10455;48.732;10.266;2023-03-14T03:51:45;0.30;;;0.30;;
20593;SDS011;10455;48.732;10.266;2023-03-14T03:56:47;0.30;;;0.30;;
20593;SDS011;10455;48.732;10.266;2023-03-14T04:01:50;0.30;;;0.30;;
20593;SDS011;10455;48.732;10.266;2023-03-14T04:06:52;0.30;;;0.30;;
20593;SDS011;10455;48.732;10.266;2023-03-14T04:11:54;0.30;;;0.30;;
20593;SDS011;10455;48.732;10.266;2023-03-14T04:16:57;0.30;;;0.30;;
20593;SDS011;10455;48.732;10.266;2023-03-14T04:21:59;0.30;;;0.30;;
20593;SDS011;10455;48.732;10.266;2023-03-14T04:27:01;0.30;;;0.30;;
20593;SDS011;10455;48.732;10.266;2023-03-14T04:32:04;0.30;;;0.30;;
20593;SDS011;10455;48.732;10.266;2023-03-14T04:37:06;0.30;;;0.30;;
20593;SDS011;10455;48.732;10.266;2023-03-14T04:42:08;0.30;;;0.30;;
20593;SDS011;10455;48.732;10.266;2023-03-14T04:47:11;0.30;;;0.30;;
20593;SDS011;10455;48.732;10.266;2023-03-14T04:52:13;0.30;;;0.30;;
20593;SDS011;10455;48.732;10.266;2023-03-14T04:57:15;0.30;;;0.30;;
20593;SDS011;10455;48.732;10.266;2023-03-14T05:02:18;0.30;;;0.30;;
20593;SDS011;10455;48.732;10.266;2023-03-14T05:07:20;0.30;;;0.30;;
20593;SDS011;10455;48.732;10.266;2023-03-14T05:12:22;0.40;;;0.40;;
20593;SDS011;10455;48.732;10.266;2023-03-14T05:17:25;0.37;;;0.37;;
20593;SDS011;10455;48.732;10.266;2023-03-14T05:22:27;0.30;;;0.30;;
20593;SDS011;10455;48.732;10.266;2023-03-14T05:27:29;0.30;;;0.30;;
20593;SDS011;10455;48.732;10.266;2023-03-14T05:32:32;0.30;;;0.30;;
20593;SDS011;10455;48.732;10.266;2023-03-14T05:37:34;0.30;;;0.30;;
20593;SDS011;10455;48.732;10.266;2023-03-14T05:42:36;0.30;;;0.30;;
20593;SDS011;10455;48.732;10.266;2023-03-14T05:47:39;0.30;;;0.30;;
20593;SDS011;10455;48.732;10.266;2023-03-14T05:52:41;0.30;;;0.30;;
20593;SDS011;10455;48.732;10.266;2023-03-14T05:57:43;0.40;;;0.40;;
20593;SDS011;10455;48.732;10.266;2023-03-14T06:02:46;0.40;;;0.40;;
20593;SDS011;10455;48.732;10.266;2023-03-14T06:07:48;0.40;;;0.40;;
20593;SDS011;10455;48.732;10.266;2023-03-14T06:12:50;0.40;;;0.40;;
20593;SDS011;10455;48.732;10.266;2023-03-14T06:17:54;0.43;;;0.43;;
20593;SDS011;10455;48.732;10.266;2023-03-14T06:22:56;0.40;;;0.40;;
20593;SDS011;10455;48.732;10.266;2023-03-14T06:27:58;0.40;;;0.40;;
20593;SDS011;10455;48.732;10.266;2023-03-14T06:33:01;0.50;;;0.50;;
20593;SDS011;10455;48.732;10.266;2023-03-14T06:38:03;0.50;;;0.50;;
20593;SDS011;10455;48.732;10.266;2023-03-14T06:43:05;0.50;;;0.50;;
20593;SDS011;10455;48.732;10.266;2023-03-14T06:48:09;0.60;;;0.60;;
20593;SDS011;10455;48.732;10.266;2023-03-14T06:53:10;0.60;;;0.60;;
20593;SDS011;10455;48.732;10.266;2023-03-14T06:58:12;0.60;;;0.60;;
20593;SDS011;10455;48.732;10.266;2023-03-14T07:03:16;0.70;;;0.70;;
20593;SDS011;10455;48.732;10.266;2023-03-14T07:08:18;0.70;;;0.70;;
20593;SDS011;10455;48.732;10.266;2023-03-14T07:13:20;0.80;;;0.80;;
20593;SDS011;10455;48.732;10.266;2023-03-14T07:18:23;0.80;;;0.80;;
20593;SDS011;10455;48.732;10.266;2023-03-14T07:23:25;0.80;;;0.80;;
20593;SDS011;10455;48.732;10.266;2023-03-14T07:28:27;0.90;;;0.90;;
20593;SDS011;10455;48.732;10.266;2023-03-14T07:33:30;0.87;;;0.87;;
20593;SDS011;10455;48.732;10.266;2023-03-14T07:38:32;0.90;;;0.90;;
20593;SDS011;10455;48.732;10.266;2023-03-14T07:43:34;1.00;;;1.00;;
20593;SDS011;10455;48.732;10.266;2023-03-14T07:48:37;0.90;;;0.90;;
20593;SDS011;10455;48.732;10.266;2023-03-14T07:53:40;0.90;;;0.90;;
20593;SDS011;10455;48.732;10.266;2023-03-14T07:58:43;0.90;;;0.90;;
20593;SDS011;10455;48.732;10.266;2023-03-14T08:03:46;0.90;;;0.90;;
20593;SDS011;10455;48.732;10.266;2023-03-14T08:08:48;0.90;;;0.90;;
20593;SDS011;10455;48.732;10.266;2023-03-14T08:13:50;0.90;;;0.90;;
20593;SDS011;10455;48.732;10.266;2023-03-14T08:18:53;1.00;;;1.00;;
20593;SDS011;10455;48.732;10.266;2023-03-14T08:23:56;0.93;;;0.93;;
20593;SDS011;10455;48.732;10.266;2023-03-14T08:28:58;0.90;;;0.90;;
20593;SDS011;10455;48.732;10.266;2023-03-14T08:34:01;1.00;;;1.00;;
20593;SDS011;10455;48.732;10.266;2023-03-14T08:39:03;1.00;;;1.00;;
20593;SDS011;10455;48.732;10.266;2023-03-14T08:44:07;0.90;;;0.90;;
20593;SDS011;10455;48.732;10.266;2023-03-14T08:49:10;0.90;;;0.90;;
20593;SDS011;10455;48.732;10.266;2023-03-14T08:54:14;1.00;;;1.00;;
20593;SDS011;10455;48.732;10.266;2023-03-14T08:59:16;0.90;;;0.90;;
20593;SDS011;10455;48.732;10.266;2023-03-14T09:04:19;0.90;;;0.90;;
20593;SDS011;10455;48.732;10.266;2023-03-14T09:09:21;0.90;;;0.90;;
20593;SDS011;10455;48.732;10.266;2023-03-14T09:14:23;0.90;;;0.90;;
20593;SDS011;10455;48.732;10.266;2023-03-14T09:19:27;0.90;;;0.90;;
20593;SDS011;10455;48.732;10.266;2023-03-14T09:24:29;1.00;;;1.00;;
20593;SDS011;10455;48.732;10.266;2023-03-14T09:29:31;1.00;;;1.00;;
20593;SDS011;10455;48.732;10.266;2023-03-14T09:34:34;0.90;;;0.90;;
20593;SDS011;10455;48.732;10.266;2023-03-14T09:39:36;1.00;;;1.00;;
20593;SDS011;10455;48.732;10.266;2023-03-14T09:44:39;0.88;;;0.88;;
20593;SDS011;10455;48.732;10.266;2023-03-14T09:49:48;1.00;;;1.00;;
20593;SDS011;10455;48.732;10.266;2023-03-14T09:54:50;1.00;;;1.00;;
20593;SDS011;10455;48.732;10.266;2023-03-14T09:59:54;1.00;;;1.00;;
20593;SDS011;10455;48.732;10.266;2023-03-14T10:05:01;1.00;;;1.00;;
20593;SDS011;10455;48.732;10.266;2023-03-14T10:10:08;1.00;;;1.00;;
20593;SDS011;10455;48.732;10.266;2023-03-14T10:15:15;0.90;;;0.90;;
20593;SDS011;10455;48.732;10.266;2023-03-14T10:20:28;0.80;;;0.80;;
20593;SDS011;10455;48.732;10.266;2023-03-14T10:25:34;0.90;;;0.90;;
20593;SDS011;10455;48.732;10.266;2023-03-14T10:30:38;1.00;;;1.00;;
20593;SDS011;10455;48.732;10.266;2023-03-14T10:35:45;0.90;;;0.90;;
20593;SDS011;10455;48.732;10.266;2023-03-14T10:40:53;1.25;;;1.17;;
20593;SDS011;10455;48.732;10.266;2023-03-14T10:45:58;1.90;;;1.20;;
20593;SDS011;10455;48.732;10.266;2023-03-14T10:51:05;1.52;;;1.42;;
20593;SDS011;10455;48.732;10.266;2023-03-14T10:56:13;1.20;;;1.20;;
20593;SDS011;10455;48.732;10.266;2023-03-14T11:01:27;3.58;;;1.50;;
20593;SDS011;10455;48.732;10.266;2023-03-14T11:06:41;1.27;;;1.17;;
20593;SDS011;10455;48.732;10.266;2023-03-14T11:11:46;1.23;;;1.20;;
20593;SDS011;10455;48.732;10.266;2023-03-14T11:16:52;1.50;;;1.40;;
20593;SDS011;10455;48.732;10.266;2023-03-14T11:21:59;1.40;;;1.30;;
20593;SDS011;10455;48.732;10.266;2023-03-14T11:27:10;1.25;;;1.25;;
20593;SDS011;10455;48.732;10.266;2023-03-14T11:32:23;1.20;;;1.20;;
20593;SDS011;10455;48.732;10.266;2023-03-14T11:37:34;1.45;;;1.20;;
20593;SDS011;10455;48.732;10.266;2023-03-14T11:42:37;1.17;;;1.13;;
20593;SDS011;10455;48.732;10.266;2023-03-14T11:47:43;1.63;;;1.10;;
20593;SDS011;10455;48.732;10.266;2023-03-14T11:52:49;1.10;;;1.10;;
20593;SDS011;10455;48.732;10.266;2023-03-14T11:57:56;1.20;;;1.20;;
20593;SDS011;10455;48.732;10.266;2023-03-14T12:03:02;1.20;;;1.20;;
20593;SDS011;10455;48.732;10.266;2023-03-14T12:08:22;1.40;;;1.23;;
20593;SDS011;10455;48.732;10.266;2023-03-14T12:13:32;1.88;;;1.50;;
20593;SDS011;10455;48.732;10.266;2023-03-14T12:18:37;1.50;;;1.40;;
20593;SDS011;10455;48.732;10.266;2023-03-14T12:23:43;1.30;;;1.20;;
20593;SDS011;10455;48.732;10.266;2023-03-14T12:28:50;1.23;;;1.13;;
20593;SDS011;10455;48.732;10.266;2023-03-14T12:34:00;1.20;;;1.20;;
20593;SDS011;10455;48.732;10.266;2023-03-14T12:39:07;1.90;;;1.10;;
20593;SDS011;10455;48.732;10.266;2023-03-14T12:49:48;1.10;;;1.10;;
20593;SDS011;10455;48.732;10.266;2023-03-14T12:54:54;1.27;;;1.20;;
20593;SDS011;10455;48.732;10.266;2023-03-14T13:00:02;1.07;;;1.07;;
20593;SDS011;10455;48.732;10.266;2023-03-14T13:05:19;1.80;;;1.03;;
20593;SDS011;10455;48.732;10.266;2023-03-14T13:10:24;1.17;;;0.90;;
20593;SDS011;10455;48.732;10.266;2023-03-14T13:15:27;1.30;;;1.20;;
20593;SDS011;10455;48.732;10.266;2023-03-14T13:20:34;1.00;;;1.00;;
20593;SDS011;10455;48.732;10.266;2023-03-14T13:25:40;1.20;;;1.20;;
20593;SDS011;10455;48.732;10.266;2023-03-14T13:30:43;1.03;;;1.03;;
20593;SDS011;10455;48.732;10.266;2023-03-14T13:35:47;1.30;;;1.20;;
20593;SDS011;10455;48.732;10.266;2023-03-14T13:40:52;1.10;;;1.10;;
20593;SDS011;10455;48.732;10.266;2023-03-14T13:46:03;1.10;;;1.10;;
20593;SDS011;10455;48.732;10.266;2023-03-14T13:51:07;1.30;;;1.20;;
20593;SDS011;10455;48.732;10.266;2023-03-14T13:56:14;2.30;;;1.67;;
20593;SDS011;10455;48.732;10.266;2023-03-14T14:01:17;4.60;;;2.67;;
20593;SDS011;10455;48.732;10.266;2023-03-14T14:06:28;25.13;;;13.10;;
20593;SDS011;10455;48.732;10.266;2023-03-14T14:11:36;14.80;;;8.17;;
20593;SDS011;10455;48.732;10.266;2023-03-14T14:16:42;3.10;;;2.50;;
20593;SDS011;10455;48.732;10.266;2023-03-14T14:21:45;1.90;;;1.63;;
20593;SDS011;10455;48.732;10.266;2023-03-14T14:26:49;1.60;;;1.50;;
20593;SDS011;10455;48.732;10.266;2023-03-14T14:31:59;3.27;;;1.50;;
20593;SDS011;10455;48.732;10.266;2023-03-14T14:37:17;1.70;;;1.60;;
20593;SDS011;10455;48.732;10.266;2023-03-14T14:42:24;2.50;;;1.60;;
20593;SDS011;10455;48.732;10.266;2023-03-14T14:47:28;2.73;;;1.70;;
20593;SDS011;10455;48.732;10.266;2023-03-14T14:52:33;2.83;;;1.80;;
20593;SDS011;10455;48.732;10.266;2023-03-14T14:57:40;3.13;;;2.20;;
20593;SDS011;10455;48.732;10.266;2023-03-14T15:02:49;2.00;;;1.80;;
20593;SDS011;10455;48.732;10.266;2023-03-14T15:07:52;2.57;;;1.60;;
20593;SDS011;10455;48.732;10.266;2023-03-14T15:12:56;1.63;;;1.53;;
20593;SDS011;10455;48.732;10.266;2023-03-14T15:17:58;1.77;;;1.67;;
20593;SDS011;10455;48.732;10.266;2023-03-14T15:23:00;2.40;;;1.67;;
20593;SDS011;10455;48.732;10.266;2023-03-14T15:28:03;1.80;;;1.70;;
20593;SDS011;10455;48.732;10.266;2023-03-14T15:33:06;2.33;;;1.60;;
20593;SDS011;10455;48.732;10.266;2023-03-14T15:38:12;2.40;;;2.20;;
20593;SDS011;10455;48.732;10.266;2023-03-14T15:43:17;4.43;;;1.80;;
20593;SDS011;10455;48.732;10.266;2023-03-14T15:48:20;2.97;;;2.00;;
20593;SDS011;10455;48.732;10.266;2023-03-14T15:53:23;3.03;;;1.80;;
20593;SDS011;10455;48.732;10.266;2023-03-14T15:58:26;2.47;;;1.80;;
20593;SDS011;10455;48.732;10.266;2023-03-14T16:03:28;2.70;;;1.80;;
20593;SDS011;10455;48.732;10.266;2023-03-14T16:08:31;3.00;;;1.90;;
20593;SDS011;10455;48.732;10.266;2023-03-14T16:13:34;2.37;;;1.70;;
20593;SDS011;10455;48.732;10.266;2023-03-14T16:18:36;2.50;;;1.90;;
20593;SDS011;10455;48.732;10.266;2023-03-14T16:23:39;3.43;;;2.00;;
20593;SDS011;10455;48.732;10.266;2023-03-14T16:28:43;4.73;;;2.13;;
20593;SDS011;10455;48.732;10.266;2023-03-14T16:33:46;6.63;;;2.43;;
20593;SDS011;10455;48.732;10.266;2023-03-14T16:38:48;2.83;;;2.27;;
20593;SDS011;10455;48.732;10.266;2023-03-14T16:43:51;4.60;;;2.13;;
20593;SDS011;10455;48.732;10.266;2023-03-14T16:48:55;3.13;;;2.00;;
20593;SDS011;10455;48.732;10.266;2023-03-14T16:53:58;4.17;;;2.60;;
20593;SDS011;10455;48.732;10.266;2023-03-14T16:59:02;3.17;;;2.00;;
20593;SDS011;10455;48.732;10.266;2023-03-14T17:04:04;3.33;;;2.50;;
20593;SDS011;10455;48.732;10.266;2023-03-14T17:09:08;5.77;;;2.10;;
20593;SDS011;10455;48.732;10.266;2023-03-14T17:14:11;2.17;;;1.97;;
20593;SDS011;10455;48.732;10.266;2023-03-14T17:19:13;4.83;;;2.17;;
20593;SDS011;10455;48.732;10.266;2023-03-14T17:24:15;5.30;;;2.10;;
20593;SDS011;10455;48.732;10.266;2023-03-14T17:29:19;6.20;;;2.40;;
20593;SDS011;10455;48.732;10.266;2023-03-14T17:34:21;3.63;;;2.10;;
20593;SDS011;10455;48.732;10.266;2023-03-14T17:39:23;3.87;;;2.00;;
20593;SDS011;10455;48.732;10.266;2023-03-14T17:44:26;5.67;;;2.20;;
20593;SDS011;10455;48.732;10.266;2023-03-14T17:49:28;4.43;;;2.10;;
20593;SDS011;10455;48.732;10.266;2023-03-14T17:54:30;3.20;;;2.40;;
20593;SDS011;10455;48.732;10.266;2023-03-14T17:59:33;4.43;;;2.33;;
20593;SDS011;10455;48.732;10.266;2023-03-14T18:04:35;5.33;;;2.13;;
20593;SDS011;10455;48.732;10.266;2023-03-14T18:09:37;4.00;;;2.00;;
20593;SDS011;10455;48.732;10.266;2023-03-14T18:14:40;4.47;;;2.10;;
20593;SDS011;10455;48.732;10.266;2023-03-14T18:19:43;2.43;;;2.20;;
20593;SDS011;10455;48.732;10.266;2023-03-14T18:24:45;2.90;;;2.50;;
20593;SDS011;10455;48.732;10.266;2023-03-14T18:29:48;4.33;;;2.10;;
20593;SDS011;10455;48.732;10.266;2023-03-14T18:34:50;2.77;;;2.10;;
20593;SDS011;10455;48.732;10.266;2023-03-14T18:39:52;3.53;;;2.37;;
20593;SDS011;10455;48.732;10.266;2023-03-14T18:44:55;3.37;;;2.20;;
20593;SDS011;10455;48.732;10.266;2023-03-14T18:49:57;4.43;;;2.30;;
20593;SDS011;10455;48.732;10.266;2023-03-14T18:54:59;4.20;;;2.40;;
20593;SDS011;10455;48.732;10.266;2023-03-14T19:00:02;4.07;;;2.50;;
20593;SDS011;10455;48.732;10.266;2023-03-14T19:05:06;5.53;;;3.13;;
20593;SDS011;10455;48.732;10.266;2023-03-14T19:10:09;4.73;;;2.40;;
20593;SDS011;10455;48.732;10.266;2023-03-14T19:15:13;4.27;;;2.50;;
20593;SDS011;10455;48.732;10.266;2023-03-14T19:20:15;3.50;;;3.20;;
20593;SDS011;10455;48.732;10.266;2023-03-14T19:25:17;4.43;;;2.90;;
20593;SDS011;10455;48.732;10.266;2023-03-14T19:30:20;3.63;;;2.47;;
20593;SDS011;10455;48.732;10.266;2023-03-14T19:35:22;4.80;;;2.80;;
20593;SDS011;10455;48.732;10.266;2023-03-14T19:40:24;5.33;;;2.80;;
20593;SDS011;10455;48.732;10.266;2023-03-14T19:45:27;7.20;;;3.30;;
20593;SDS011;10455;48.732;10.266;2023-03-14T19:50:31;4.23;;;2.80;;
20593;SDS011;10455;48.732;10.266;2023-03-14T19:55:33;5.33;;;2.80;;
20593;SDS011;10455;48.732;10.266;2023-03-14T20:00:37;6.20;;;2.77;;
20593;SDS011;10455;48.732;10.266;2023-03-14T20:05:40;4.37;;;2.57;;
20593;SDS011;10455;48.732;10.266;2023-03-14T20:10:44;6.13;;;2.50;;
20593;SDS011;10455;48.732;10.266;2023-03-14T20:15:47;4.33;;;2.40;;
20593;SDS011;10455;48.732;10.266;2023-03-14T20:20:52;3.10;;;2.60;;
20593;SDS011;10455;48.732;10.266;2023-03-14T20:25:54;5.17;;;2.50;;
20593;SDS011;10455;48.732;10.266;2023-03-14T20:30:58;6.03;;;3.77;;
20593;SDS011;10455;48.732;10.266;2023-03-14T20:36:00;10.60;;;3.27;;
20593;SDS011;10455;48.732;10.266;2023-03-14T20:41:02;3.17;;;2.70;;
20593;SDS011;10455;48.732;10.266;2023-03-14T20:46:05;2.60;;;2.40;;
20593;SDS011;10455;48.732;10.266;2023-03-14T20:51:07;4.17;;;2.50;;
20593;SDS011;10455;48.732;10.266;2023-03-14T20:56:11;3.80;;;2.90;;
20593;SDS011;10455;48.732;10.266;2023-03-14T21:01:14;4.90;;;2.77;;
20593;SDS011;10455;48.732;10.266;2023-03-14T21:06:16;3.83;;;3.03;;
20593;SDS011;10455;48.732;10.266;2023-03-14T21:11:18;3.30;;;3.00;;
20593;SDS011;10455;48.732;10.266;2023-03-14T21:16:21;3.80;;;3.20;;
20593;SDS011;10455;48.732;10.266;2023-03-14T21:21:23;3.20;;;2.67;;
20593;SDS011;10455;48.732;10.266;2023-03-14T21:26:25;4.27;;;3.10;;
20593;SDS011;10455;48.732;10.266;2023-03-14T21:31:28;5.33;;;2.57;;
20593;SDS011;10455;48.732;10.266;2023-03-14T21:36:30;3.93;;;2.73;;
20593;SDS011;10455;48.732;10.266;2023-03-14T21:41:32;10.07;;;3.00;;
20593;SDS011;10455;48.732;10.266;2023-03-14T21:46:36;5.07;;;2.90;;
20593;SDS011;10455;48.732;10.266;2023-03-14T21:51:37;4.50;;;3.00;;
20593;SDS011;10455;48.732;10.266;2023-03-14T21:56:40;8.43;;;3.27;;
20593;SDS011;10455;48.732;10.266;2023-03-14T22:01:44;7.47;;;3.10;;
20593;SDS011;10455;48.732;10.266;2023-03-14T22:06:46;6.90;;;3.20;;
20593;SDS011;10455;48.732;10.266;2023-03-14T22:11:47;3.47;;;3.07;;
20593;SDS011;10455;48.732;10.266;2023-03-14T22:16:51;6.30;;;3.40;;
20593;SDS011;10455;48.732;10.266;2023-03-14T22:21:53;4.30;;;3.90;;
20593;SDS011;10455;48.732;10.266;2023-03-14T22:26:55;6.97;;;5.20;;
20593;SDS011;10455;48.732;10.266;2023-03-14T22:31:58;6.60;;;4.77;;
20593;SDS011;10455;48.732;10.266;2023-03-14T22:37:00;6.10;;;5.50;;
20593;SDS011;10455;48.732;10.266;2023-03-14T22:42:04;6.00;;;4.00;;
20593;SDS011;10455;48.732;10.266;2023-03-14T22:47:07;9.13;;;4.37;;
20593;SDS011;10455;48.732;10.266;2023-03-14T22:52:09;9.23;;;4.10;;
20593;SDS011;10455;48.732;10.266;2023-03-14T22:57:11;4.33;;;3.20;;
20593;SDS011;10455;48.732;10.266;2023-03-14T23:02:15;7.20;;;4.13;;
20593;SDS011;10455;48.732;10.266;2023-03-14T23:07:17;7.37;;;4.63;;
20593;SDS011;10455;48.732;10.266;2023-03-14T23:12:19;7.77;;;5.27;;
20593;SDS011;10455;48.732;10.266;2023-03-14T23:17:22;5.70;;;4.77;;
20593;SDS011;10455;48.732;10.266;2023-03-14T23:22:24;8.50;;;5.10;;
20593;SDS011;10455;48.732;10.266;2023-03-14T23:27:31;5.97;;;4.73;;
20593;SDS011;10455;48.732;10.266;2023-03-14T23:32:35;5.97;;;4.90;;
20593;SDS011;10455;48.732;10.266;2023-03-14T23:37:37;6.50;;;4.80;;
20593;SDS011;10455;48.732;10.266;2023-03-14T23:42:39;6.40;;;4.80;;
20593;SDS011;10455;48.732;10.266;2023-03-14T23:47:42;10.40;;;5.80;;
20593;SDS011;10455;48.732;10.266;2023-03-14T23:52:44;12.47;;;6.20;;
20593;SDS011;10455;48.732;10.266;2023-03-14T23:57:46;12.60;;;6.87;;
